createdAt,value
2024-02-24T00:00:33.197Z,0.52
2024-02-24T00:18:30.878Z,0.73
2024-02-24T01:14:03.014Z,0.93
2024-02-24T01:19:24.067Z,0.80
2024-02-24T01:21:58.964Z,0.63
2024-02-24T01:24:57.374Z,0.70
2024-02-24T01:28:05.486Z,0.73
2024-02-24T01:31:26.125Z,0.80
2024-02-24T01:33:55.478Z,0.70
2024-02-24T01:36:23.961Z,1.00
2024-02-24T01:38:57.693Z,1.00
2024-02-24T01:41:26.810Z,1.00
2024-02-24T01:43:56.649Z,1.02
2024-02-24T01:46:25.103Z,1.10
2024-02-24T01:48:53.578Z,1.40
2024-02-24T01:51:25.116Z,1.10
2024-02-24T01:57:04.233Z,1.05
2024-02-24T01:59:58.564Z,1.08
2024-02-24T02:12:28.705Z,1.15
2024-02-24T02:17:42.886Z,2.40
2024-02-24T02:22:52.656Z,2.17
2024-02-24T02:25:21.207Z,2.60
2024-02-24T02:28:01.096Z,1.42
2024-02-24T02:30:29.884Z,1.77
2024-02-24T02:33:05.014Z,1.30
2024-02-24T02:35:47.254Z,1.75
2024-02-24T02:38:18.821Z,1.95
2024-02-24T02:47:17.636Z,1.75
2024-02-24T03:36:59.801Z,1.50
2024-02-24T03:39:38.223Z,1.35
2024-02-24T03:42:07.312Z,1.70
2024-02-24T03:44:36.017Z,1.73
2024-02-24T03:47:04.386Z,1.90
2024-02-24T03:49:32.838Z,2.10
2024-02-24T03:52:01.361Z,2.38
2024-02-24T03:54:29.673Z,1.90
2024-02-24T03:56:58.039Z,1.60
2024-02-24T03:59:26.391Z,1.85
2024-02-24T04:01:54.712Z,1.92
2024-02-24T04:04:23.046Z,1.85
2024-02-24T04:06:51.434Z,1.85
2024-02-24T04:09:19.801Z,1.60
2024-02-24T04:11:50.638Z,1.70
2024-02-24T04:14:19.129Z,2.38
2024-02-24T04:16:47.962Z,1.77
2024-02-24T04:19:16.295Z,2.65
2024-02-24T04:21:44.712Z,2.08
2024-02-24T04:24:13.054Z,1.70
2024-02-24T04:26:41.555Z,1.85
2024-02-24T04:29:09.981Z,1.60
2024-02-24T04:31:38.411Z,1.63
2024-02-24T04:34:06.909Z,1.70
2024-02-24T04:36:35.814Z,1.88
2024-02-24T04:39:04.060Z,1.80
2024-02-24T04:41:32.364Z,1.60
2024-02-24T04:44:00.879Z,1.90
2024-02-24T04:46:29.143Z,1.70
2024-02-24T04:48:57.590Z,1.50
2024-02-24T04:51:25.924Z,2.00
2024-02-24T04:53:56.435Z,1.85
2024-02-24T04:56:24.865Z,1.97
2024-02-24T04:58:53.330Z,2.08
2024-02-24T05:01:23.704Z,1.45
2024-02-24T05:03:52.093Z,1.48
2024-02-24T05:06:20.542Z,1.70
2024-02-24T05:08:48.957Z,1.48
2024-02-24T05:11:17.634Z,1.75
2024-02-24T05:13:46.245Z,1.70
2024-02-24T05:16:15.867Z,1.92
2024-02-24T05:18:44.331Z,1.60
2024-02-24T05:21:24.769Z,1.20
2024-02-24T05:23:53.271Z,1.60
2024-02-24T05:26:29.042Z,1.63
2024-02-24T05:28:58.170Z,1.52
2024-02-24T05:31:26.557Z,1.80
2024-02-24T05:33:56.474Z,1.70
2024-02-24T05:36:26.743Z,1.58
2024-02-24T05:38:55.032Z,1.52
2024-02-24T05:41:23.390Z,1.80
2024-02-24T05:43:52.239Z,1.60
2024-02-24T05:46:20.647Z,1.45
2024-02-24T05:48:49.118Z,1.60
2024-02-24T05:51:18.845Z,1.80
2024-02-24T05:53:47.280Z,1.58
2024-02-24T05:56:15.935Z,1.80
2024-02-24T05:58:44.437Z,1.63
2024-02-24T06:01:16.600Z,1.40
2024-02-24T06:03:45.335Z,1.50
2024-02-24T06:06:14.523Z,1.60
2024-02-24T06:08:43.057Z,1.38
2024-02-24T06:11:11.985Z,1.35
2024-02-24T06:13:40.437Z,1.40
2024-02-24T06:16:09.751Z,1.33
2024-02-24T06:18:38.223Z,1.88
2024-02-24T06:21:10.981Z,1.60
2024-02-24T06:23:39.470Z,1.55
2024-02-24T06:26:07.886Z,1.52
2024-02-24T06:28:37.496Z,1.65
2024-02-24T06:31:06.041Z,1.42
2024-02-24T06:33:34.678Z,1.50
2024-02-24T06:36:04.908Z,1.60
2024-02-24T06:38:33.248Z,1.50
2024-02-24T06:41:01.744Z,1.75
2024-02-24T06:43:30.065Z,1.50
2024-02-24T06:46:00.491Z,1.88
2024-02-24T06:48:29.401Z,1.43
2024-02-24T06:50:58.024Z,1.80
2024-02-24T06:53:26.351Z,1.50
2024-02-24T06:55:55.229Z,1.25
2024-02-24T06:58:23.759Z,1.30
2024-02-24T07:00:52.055Z,1.50
2024-02-24T07:03:22.366Z,1.45
2024-02-24T07:05:50.822Z,1.52
2024-02-24T07:08:19.299Z,1.67
2024-02-24T07:10:47.609Z,1.30
2024-02-24T07:13:16.015Z,1.45
2024-02-24T07:15:44.365Z,1.48
2024-02-24T07:18:12.768Z,1.48
2024-02-24T07:20:41.215Z,1.50
2024-02-24T07:23:09.606Z,1.80
2024-02-24T07:25:39.633Z,1.45
2024-02-24T07:28:08.439Z,1.50
2024-02-24T07:30:36.845Z,1.13
2024-02-24T07:33:05.665Z,1.20
2024-02-24T07:35:34.231Z,1.60
2024-02-24T07:38:02.744Z,1.25
2024-02-24T07:40:31.323Z,1.40
2024-02-24T07:42:59.989Z,1.60
2024-02-24T07:45:28.560Z,1.30
2024-02-24T07:47:57.287Z,1.42
2024-02-24T07:50:25.946Z,1.60
2024-02-24T07:52:54.335Z,1.27
2024-02-24T07:55:23.227Z,1.30
2024-02-24T07:57:51.592Z,1.88
2024-02-24T08:00:21.586Z,1.40
2024-02-24T08:02:50.003Z,1.42
2024-02-24T08:05:20.338Z,1.20
2024-02-24T08:07:48.726Z,1.40
2024-02-24T08:10:18.088Z,1.40
2024-02-24T08:12:46.451Z,1.23
2024-02-24T08:15:14.869Z,1.40
2024-02-24T08:17:46.356Z,1.40
2024-02-24T08:20:15.497Z,1.30
2024-02-24T08:22:45.775Z,1.85
2024-02-24T08:25:14.110Z,1.30
2024-02-24T08:27:42.464Z,1.38
2024-02-24T08:30:11.339Z,1.40
2024-02-24T08:32:39.888Z,1.50
2024-02-24T08:35:08.887Z,1.17
2024-02-24T08:37:37.389Z,1.40
2024-02-24T08:40:06.109Z,1.50
2024-02-24T08:42:34.414Z,1.23
2024-02-24T08:45:02.758Z,1.50
2024-02-24T08:47:31.184Z,1.23
2024-02-24T08:49:59.564Z,1.60
2024-02-24T08:52:35.482Z,1.30
2024-02-24T08:55:11.035Z,1.33
2024-02-24T08:57:39.301Z,1.35
2024-02-24T09:00:08.362Z,1.30
2024-02-24T09:02:36.781Z,1.63
2024-02-24T09:05:06.029Z,1.50
2024-02-24T09:07:34.371Z,1.38
2024-02-24T09:10:04.896Z,1.45
2024-02-24T09:12:34.829Z,1.50
2024-02-24T09:15:03.277Z,1.33
2024-02-24T09:17:31.918Z,1.50
2024-02-24T09:20:02.389Z,1.33
2024-02-24T09:22:30.793Z,1.45
2024-02-24T09:25:00.974Z,1.10
2024-02-24T09:27:29.252Z,1.23
2024-02-24T09:29:57.739Z,1.35
2024-02-24T09:32:26.205Z,1.50
2024-02-24T09:34:55.056Z,1.40
2024-02-24T09:37:23.408Z,1.30
2024-02-24T09:39:51.687Z,1.25
2024-02-24T09:42:20.012Z,1.15
2024-02-24T09:44:49.505Z,1.10
2024-02-24T09:47:19.531Z,1.10
2024-02-24T09:49:48.146Z,1.00
2024-02-24T09:52:19.449Z,1.45
2024-02-24T09:54:48.579Z,1.10
2024-02-24T09:57:24.699Z,1.40
2024-02-24T09:59:54.211Z,1.25
2024-02-24T10:02:22.808Z,1.17
2024-02-24T10:04:53.306Z,1.30
2024-02-24T10:07:21.731Z,1.13
2024-02-24T10:09:50.131Z,1.23
2024-02-24T10:12:19.027Z,0.80
2024-02-24T10:14:47.493Z,1.02
2024-02-24T10:17:17.196Z,1.27
2024-02-24T10:19:48.446Z,1.20
2024-02-24T10:22:19.824Z,1.17
2024-02-24T10:24:48.673Z,1.15
2024-02-24T10:27:20.116Z,1.30
2024-02-24T10:32:23.633Z,1.13
2024-02-24T10:34:54.826Z,1.38
2024-02-24T10:37:25.562Z,1.10
2024-02-24T10:39:55.666Z,1.27
2024-02-24T10:42:28.153Z,1.20
2024-02-24T10:44:58.041Z,1.20
2024-02-24T10:47:27.212Z,1.02
2024-02-24T10:49:55.692Z,1.30
2024-02-24T10:52:24.830Z,1.33
2024-02-24T10:54:54.497Z,1.10
2024-02-24T10:57:23.101Z,1.10
2024-02-24T10:59:51.589Z,1.30
2024-02-24T11:02:22.979Z,1.10
2024-02-24T11:07:25.455Z,1.10
2024-02-24T11:09:56.960Z,1.00
2024-02-24T11:14:57.311Z,1.20
2024-02-24T11:17:48.939Z,1.20
2024-02-24T11:20:36.093Z,1.17
2024-02-24T11:23:26.960Z,1.35
2024-02-24T11:26:27.323Z,0.80
2024-02-24T11:29:05.907Z,1.00
2024-02-24T11:31:37.143Z,1.20
2024-02-24T11:34:13.178Z,1.08
2024-02-24T11:36:43.277Z,1.17
2024-02-24T11:39:15.177Z,1.30
2024-02-24T11:41:43.845Z,1.00
2024-02-24T11:44:14.305Z,1.55
2024-02-24T11:46:47.796Z,0.82
2024-02-24T11:49:19.302Z,1.15
2024-02-24T11:51:47.915Z,1.20
2024-02-24T11:54:19.042Z,1.10
2024-02-24T11:56:47.510Z,1.27
2024-02-24T11:59:17.658Z,1.00
2024-02-24T12:01:47.100Z,1.13
2024-02-24T12:04:24.391Z,0.95
2024-02-24T12:06:53.535Z,1.08
2024-02-24T12:09:22.550Z,0.85
2024-02-24T12:11:51.257Z,1.20
2024-02-24T12:14:20.289Z,1.30
2024-02-24T12:16:49.228Z,1.00
2024-02-24T12:19:17.698Z,1.20
2024-02-24T12:21:50.063Z,1.00
2024-02-24T12:24:39.980Z,0.98
2024-02-24T12:27:11.395Z,1.00
2024-02-24T12:32:08.971Z,1.05
2024-02-24T12:34:38.587Z,1.08
2024-02-24T12:37:09.318Z,1.05
2024-02-24T12:39:42.883Z,0.90
2024-02-24T12:42:11.242Z,1.05
2024-02-24T12:44:39.693Z,1.15
2024-02-24T12:47:08.165Z,1.45
2024-02-24T12:49:37.238Z,0.90
2024-02-24T12:52:06.565Z,1.08
2024-02-24T12:54:35.039Z,1.08
2024-02-24T12:57:03.590Z,1.00
2024-02-24T12:59:32.021Z,1.10
2024-02-24T13:02:00.564Z,1.00
2024-02-24T13:04:31.948Z,1.10
2024-02-24T13:07:00.935Z,0.90
2024-02-24T13:09:29.476Z,1.00
2024-02-24T13:11:58.807Z,1.10
2024-02-24T13:14:27.424Z,1.25
2024-02-24T13:16:56.040Z,1.00
2024-02-24T13:19:24.440Z,1.00
2024-02-24T13:21:53.065Z,1.05
2024-02-24T13:24:21.475Z,1.10
2024-02-24T13:26:49.817Z,0.85
2024-02-24T13:29:18.296Z,0.98
2024-02-24T13:31:46.936Z,1.00
2024-02-24T13:34:16.036Z,1.23
2024-02-24T13:36:46.359Z,1.00
2024-02-24T13:39:14.787Z,0.90
2024-02-24T13:41:43.203Z,1.02
2024-02-24T13:44:14.390Z,1.13
2024-02-24T13:46:54.274Z,0.82
2024-02-24T13:49:22.872Z,1.08
2024-02-24T13:51:51.226Z,1.52
2024-02-24T13:54:20.293Z,1.55
2024-02-24T13:56:49.486Z,1.08
2024-02-24T13:59:17.968Z,1.58
2024-02-24T14:01:46.403Z,1.02
2024-02-24T14:04:14.972Z,1.10
2024-02-24T14:06:44.606Z,1.55
2024-02-24T14:09:13.101Z,1.42
2024-02-24T14:11:42.208Z,1.20
2024-02-24T14:14:10.602Z,1.20
2024-02-24T14:16:46.015Z,1.10
2024-02-24T14:19:14.710Z,1.15
2024-02-24T14:21:44.092Z,0.90
2024-02-24T14:24:12.481Z,1.08
2024-02-24T14:26:40.953Z,1.05
2024-02-24T14:29:09.346Z,1.25
2024-02-24T14:31:37.854Z,1.17
2024-02-24T14:34:06.358Z,1.10
2024-02-24T14:36:34.749Z,1.45
2024-02-24T14:39:06.069Z,0.93
2024-02-24T14:41:34.758Z,1.38
2024-02-24T14:44:03.120Z,1.10
2024-02-24T14:46:31.368Z,1.23
2024-02-24T14:48:59.866Z,0.90
2024-02-24T14:51:28.681Z,1.02
2024-02-24T14:53:57.048Z,1.15
2024-02-24T14:56:25.412Z,1.15
2024-02-24T14:58:53.725Z,1.05
2024-02-24T15:01:22.287Z,1.10
2024-02-24T15:03:50.855Z,1.05
2024-02-24T15:06:19.470Z,1.27
2024-02-24T15:08:48.088Z,1.10
2024-02-24T15:11:25.077Z,1.38
2024-02-24T15:13:53.432Z,1.05
2024-02-24T15:16:21.801Z,1.20
2024-02-24T15:18:50.214Z,1.08
2024-02-24T15:21:18.602Z,1.15
2024-02-24T15:23:47.036Z,0.98
2024-02-24T15:26:15.717Z,0.90
2024-02-24T15:28:44.052Z,1.08
2024-02-24T15:31:12.402Z,1.00
2024-02-24T15:33:40.897Z,1.10
2024-02-24T15:36:09.789Z,1.08
2024-02-24T15:38:38.145Z,1.35
2024-02-24T15:41:06.518Z,1.60
2024-02-24T15:43:34.797Z,1.33
2024-02-24T15:46:03.106Z,1.40
2024-02-24T15:48:31.484Z,1.23
2024-02-24T15:51:00.517Z,1.17
2024-02-24T15:53:28.921Z,1.77
2024-02-24T15:55:59.567Z,1.20
2024-02-24T15:58:31.212Z,1.30
2024-02-24T16:01:02.688Z,1.20
2024-02-24T16:06:00.263Z,1.10
2024-02-24T16:08:32.693Z,1.10
2024-02-24T16:11:01.290Z,1.15
2024-02-24T16:13:29.897Z,1.20
2024-02-24T16:16:01.068Z,1.10
2024-02-24T16:18:30.198Z,1.38
2024-02-24T16:20:59.041Z,1.10
2024-02-24T16:23:27.632Z,1.00
2024-02-24T16:25:56.052Z,1.30
2024-02-24T16:28:25.137Z,1.00
2024-02-24T16:31:07.927Z,1.10
2024-02-24T16:33:36.545Z,1.13
2024-02-24T16:36:05.346Z,1.13
2024-02-24T16:38:37.492Z,1.00
2024-02-24T16:41:06.271Z,0.90
2024-02-24T16:43:35.384Z,0.93
2024-02-24T16:46:06.842Z,1.10
2024-02-24T16:48:40.377Z,1.23
2024-02-24T16:51:08.923Z,1.33
2024-02-24T16:54:06.612Z,1.08
2024-02-24T16:56:35.383Z,1.52
2024-02-24T16:59:12.609Z,1.17
2024-02-24T17:02:04.488Z,1.17
2024-02-24T17:04:32.948Z,1.40
2024-02-24T17:07:02.071Z,1.48
2024-02-24T17:09:30.877Z,1.58
2024-02-24T17:11:59.420Z,1.30
2024-02-24T17:14:27.912Z,1.10
2024-02-24T17:16:56.465Z,1.65
2024-02-24T17:19:25.101Z,1.23
2024-02-24T17:22:04.594Z,1.40
2024-02-24T17:24:46.024Z,1.20
2024-02-24T17:27:14.345Z,1.33
2024-02-24T17:29:45.614Z,1.10
2024-02-24T17:32:15.281Z,1.20
2024-02-24T17:35:06.010Z,1.60
2024-02-24T17:37:37.433Z,1.30
2024-02-24T17:40:09.109Z,1.60
2024-02-24T17:42:37.649Z,1.60
2024-02-24T17:45:08.962Z,1.45
2024-02-24T17:47:37.753Z,1.27
2024-02-24T17:50:06.997Z,1.50
2024-02-24T17:52:35.499Z,1.70
2024-02-24T17:55:09.884Z,1.30
2024-02-24T17:57:38.683Z,1.30
2024-02-24T18:00:10.613Z,1.40
2024-02-24T18:02:42.150Z,0.90
2024-02-24T18:05:11.868Z,1.35
2024-02-24T18:07:40.802Z,1.50
2024-02-24T18:10:09.475Z,1.33
2024-02-24T18:12:38.123Z,1.30
2024-02-24T18:15:06.962Z,1.30
2024-02-24T18:17:35.556Z,1.27
2024-02-24T18:20:04.136Z,1.50
2024-02-24T18:22:32.401Z,1.30
2024-02-24T18:25:01.400Z,1.20
2024-02-24T18:27:29.963Z,1.13
2024-02-24T18:30:01.681Z,1.25
2024-02-24T18:32:32.510Z,1.45
2024-02-24T18:35:00.954Z,1.20
2024-02-24T18:37:29.304Z,1.30
2024-02-24T18:40:03.963Z,1.27
2024-02-24T18:42:32.489Z,1.13
2024-02-24T18:45:06.157Z,1.00
2024-02-24T18:47:34.643Z,1.20
2024-02-24T18:50:03.232Z,1.20
2024-02-24T18:52:31.607Z,1.30
2024-02-24T18:55:09.074Z,1.58
2024-02-24T18:57:37.923Z,1.73
2024-02-24T19:00:13.466Z,1.60
2024-02-24T19:02:44.041Z,1.52
2024-02-24T19:05:13.360Z,1.33
2024-02-24T19:07:53.026Z,1.25
2024-02-24T19:13:37.687Z,1.10
2024-02-24T19:19:38.430Z,1.13
2024-02-24T19:22:45.390Z,1.13
2024-02-24T19:25:20.442Z,1.20
2024-02-24T19:28:01.427Z,1.45
2024-02-24T19:33:10.759Z,1.10
2024-02-24T19:36:01.373Z,1.33
2024-02-24T19:38:36.261Z,1.17
2024-02-24T19:43:51.924Z,1.10
2024-02-24T19:46:33.073Z,1.20
2024-02-24T19:49:04.227Z,1.23
2024-02-24T19:54:32.737Z,1.10
2024-02-24T19:57:07.974Z,1.30
2024-02-24T19:59:43.611Z,1.27
2024-02-24T20:02:18.503Z,1.13
2024-02-24T20:04:46.916Z,1.20
2024-02-24T20:10:07.000Z,1.10
2024-02-24T20:12:38.212Z,1.00
2024-02-24T20:15:07.043Z,0.90
2024-02-24T20:17:35.458Z,1.50
2024-02-24T20:20:07.451Z,1.13
2024-02-24T20:22:35.789Z,0.95
2024-02-24T20:25:05.145Z,1.00
2024-02-24T20:27:33.748Z,1.10
2024-02-24T20:30:05.409Z,1.05
2024-02-24T20:32:36.558Z,1.00
2024-02-24T20:35:05.712Z,1.10
2024-02-24T20:37:38.170Z,1.10
2024-02-24T20:40:07.131Z,1.00
2024-02-24T20:42:35.526Z,1.10
2024-02-24T20:45:08.576Z,0.95
2024-02-24T20:47:37.183Z,0.80
2024-02-24T20:50:13.010Z,1.00
2024-02-24T20:52:42.063Z,0.98
2024-02-24T20:55:12.397Z,1.00
2024-02-24T20:57:46.906Z,1.00
2024-02-24T21:00:16.205Z,0.73
2024-02-24T21:02:45.286Z,1.02
2024-02-24T21:05:13.840Z,1.95
2024-02-24T21:07:42.271Z,0.98
2024-02-24T21:10:42.851Z,1.30
2024-02-24T21:13:25.796Z,1.00
2024-02-24T21:16:04.030Z,1.10
2024-02-24T21:18:35.593Z,1.20
2024-02-24T21:21:05.574Z,1.20
2024-02-24T21:23:36.662Z,0.93
2024-02-24T21:26:10.047Z,1.20
2024-02-24T21:28:38.490Z,1.05
2024-02-24T21:31:06.838Z,1.10
2024-02-24T21:33:45.108Z,1.10
2024-02-24T21:36:23.912Z,1.00
2024-02-24T21:38:55.218Z,1.05
2024-02-24T21:41:37.930Z,0.90
2024-02-24T21:44:42.856Z,1.05
2024-02-24T21:53:04.188Z,0.80
2024-02-24T21:55:46.723Z,1.00
2024-02-24T21:58:48.566Z,0.68
2024-02-24T22:01:35.575Z,1.10
2024-02-24T22:12:37.070Z,0.80
2024-02-24T22:18:35.401Z,0.80
2024-02-24T22:21:07.172Z,0.93
2024-02-24T22:23:38.584Z,0.95
2024-02-24T22:26:07.741Z,0.80
2024-02-24T22:28:39.491Z,0.80
2024-02-24T22:31:07.858Z,0.98
2024-02-24T22:33:42.877Z,0.90
2024-02-24T22:36:13.434Z,0.70
2024-02-24T22:38:41.916Z,0.82
2024-02-24T22:41:10.313Z,0.80
2024-02-24T22:43:38.779Z,0.85
2024-02-24T22:46:09.004Z,0.80
2024-02-24T22:48:37.434Z,1.00
2024-02-24T22:53:41.994Z,0.88
2024-02-24T22:56:10.328Z,0.70
2024-02-24T22:58:38.676Z,0.77
2024-02-24T23:01:06.977Z,0.80
2024-02-24T23:03:35.782Z,0.80
2024-02-24T23:06:04.479Z,0.80
2024-02-24T23:08:32.844Z,0.95
2024-02-24T23:11:02.481Z,0.70
2024-02-24T23:13:30.916Z,1.02
2024-02-24T23:15:59.359Z,0.70
2024-02-24T23:18:28.456Z,0.80
2024-02-24T23:20:57.215Z,0.98
2024-02-24T23:23:27.163Z,0.90
2024-02-24T23:25:55.842Z,0.82
2024-02-24T23:28:24.424Z,0.80
2024-02-24T23:30:52.838Z,0.75
2024-02-24T23:33:21.347Z,0.95
2024-02-24T23:35:56.243Z,0.82
2024-02-24T23:38:24.538Z,0.90
2024-02-24T23:42:01.060Z,0.90
2024-02-24T23:45:07.815Z,1.05
2024-02-24T23:54:07.352Z,1.20
2024-02-24T23:56:39.212Z,1.08
